createdAt,value
2022-12-24T00:02:37.196Z,99654.16
2022-12-24T00:05:25.905Z,99643.94
2022-12-24T00:08:14.371Z,99655.66
2022-12-24T00:11:02.855Z,99661.69
2022-12-24T00:13:52.695Z,99648.31
2022-12-24T00:16:41.174Z,99630.38
2022-12-24T00:19:29.727Z,99637.53
2022-12-24T00:22:18.221Z,99630.06
2022-12-24T00:25:07.690Z,99638.94
2022-12-24T00:27:56.103Z,99644.53
2022-12-24T00:30:45.989Z,99655.78
2022-12-24T00:33:34.475Z,99665.94
2022-12-24T00:36:22.969Z,99669.75
2022-12-24T00:39:11.430Z,99680.25
2022-12-24T00:41:59.985Z,99683.66
2022-12-24T00:44:48.456Z,99701.81
2022-12-24T00:47:38.480Z,99713.25
2022-12-24T00:50:26.928Z,99739.19
2022-12-24T00:53:15.388Z,99740.94
2022-12-24T00:56:03.863Z,99730.94
2022-12-24T00:58:52.569Z,99742.53
2022-12-24T01:01:41.064Z,99744.84
2022-12-24T01:04:48.629Z,99750.28
2022-12-24T01:07:37.321Z,99762.91
2022-12-24T01:10:25.794Z,99763.22
2022-12-24T01:13:14.237Z,99759.59
2022-12-24T01:16:02.858Z,99759.19
2022-12-24T01:18:51.394Z,99778.22
2022-12-24T01:21:41.209Z,99783.50
2022-12-24T01:24:29.671Z,99778.00
2022-12-24T01:27:18.187Z,99779.47
2022-12-24T01:30:08.144Z,99793.78
2022-12-24T01:32:56.609Z,99773.81
2022-12-24T01:35:45.276Z,99799.97
2022-12-24T01:38:35.062Z,99806.00
2022-12-24T01:41:41.720Z,99810.53
2022-12-24T01:44:36.691Z,99814.06
2022-12-24T01:47:27.871Z,99815.31
2022-12-24T01:50:18.529Z,99818.09
2022-12-24T01:53:07.650Z,99832.13
2022-12-24T01:55:57.648Z,99829.38
2022-12-24T01:58:48.535Z,99837.22
2022-12-24T02:01:37.420Z,99831.84
2022-12-24T02:04:33.613Z,99819.25
2022-12-24T02:07:22.108Z,99820.03
2022-12-24T02:10:13.659Z,99815.16
2022-12-24T02:13:05.648Z,99826.69
2022-12-24T02:16:01.526Z,99819.28
2022-12-24T02:18:57.245Z,99837.09
2022-12-24T02:21:53.297Z,99831.75
2022-12-24T02:24:57.084Z,99836.31
2022-12-24T02:27:55.833Z,99820.00
2022-12-24T02:30:48.775Z,99816.31
2022-12-24T02:33:40.391Z,99828.03
2022-12-24T02:36:32.034Z,99827.63
2022-12-24T02:39:24.901Z,99831.81
2022-12-24T02:42:14.100Z,99837.56
2022-12-24T02:45:04.929Z,99825.44
2022-12-24T02:47:56.086Z,99825.03
2022-12-24T02:50:58.879Z,99824.81
2022-12-24T02:53:47.296Z,99824.22
2022-12-24T02:56:49.930Z,99816.56
2022-12-24T02:59:59.875Z,99818.22
2022-12-24T03:03:11.929Z,99829.53
2022-12-24T03:06:06.723Z,99825.25
2022-12-24T03:09:01.038Z,99841.34
2022-12-24T03:11:56.473Z,99850.38
2022-12-24T03:14:45.570Z,99828.78
2022-12-24T03:17:36.226Z,99848.97
2022-12-24T03:20:28.247Z,99840.50
2022-12-24T03:23:16.888Z,99838.59
2022-12-24T03:26:09.177Z,99836.53
2022-12-24T03:28:57.758Z,99843.59
2022-12-24T03:31:48.689Z,99829.97
2022-12-24T03:34:37.254Z,99872.03
2022-12-24T03:37:27.171Z,99874.53
2022-12-24T03:40:15.601Z,99876.19
2022-12-24T03:43:04.125Z,99867.34
2022-12-24T03:45:52.629Z,99864.03
2022-12-24T03:48:41.116Z,99855.00
2022-12-24T03:51:29.588Z,99868.53
2022-12-24T03:54:19.432Z,99867.13
2022-12-24T03:57:08.032Z,99872.50
2022-12-24T03:59:56.494Z,99876.19
2022-12-24T04:02:45.036Z,99886.78
2022-12-24T04:05:33.622Z,99874.59
2022-12-24T04:08:22.080Z,99867.56
2022-12-24T04:11:14.196Z,99874.84
2022-12-24T04:14:02.640Z,99894.28
2022-12-24T04:16:51.151Z,99894.28
2022-12-24T04:19:39.671Z,99882.91
2022-12-24T04:22:28.240Z,99854.06
2022-12-24T04:25:16.924Z,99886.91
2022-12-24T04:28:06.896Z,99889.59
2022-12-24T04:30:59.557Z,99887.50
2022-12-24T04:33:48.203Z,99905.50
2022-12-24T04:36:36.630Z,99894.19
2022-12-24T04:39:25.190Z,99902.19
2022-12-24T04:42:13.703Z,99917.28
2022-12-24T04:45:03.569Z,99892.78
2022-12-24T04:47:52.021Z,99923.22
2022-12-24T04:50:40.647Z,99936.25
2022-12-24T04:53:29.058Z,99930.28
2022-12-24T04:56:20.359Z,99931.13
2022-12-24T04:59:08.847Z,99935.25
2022-12-24T05:01:58.742Z,99925.72
2022-12-24T05:04:47.343Z,99935.88
2022-12-24T05:07:35.907Z,99941.03
2022-12-24T05:10:24.334Z,99929.88
2022-12-24T05:13:12.788Z,99886.34
2022-12-24T05:16:01.387Z,99929.44
2022-12-24T05:18:51.555Z,99919.94
2022-12-24T05:21:40.051Z,99921.81
2022-12-24T05:24:46.129Z,99932.53
2022-12-24T05:27:34.586Z,99923.66
2022-12-24T05:30:23.070Z,99923.66
2022-12-24T05:33:11.485Z,99921.38
2022-12-24T05:36:01.336Z,99926.56
2022-12-24T05:38:49.998Z,99890.97
2022-12-24T05:41:38.492Z,99931.13
2022-12-24T05:44:26.929Z,99940.63
2022-12-24T05:47:15.397Z,99939.78
2022-12-24T05:50:04.022Z,99950.53
2022-12-24T05:52:53.825Z,99943.72
2022-12-24T05:55:42.304Z,99906.63
2022-12-24T05:58:30.778Z,99964.13
2022-12-24T06:01:19.309Z,99972.22
2022-12-24T06:04:07.905Z,99971.59
2022-12-24T06:06:56.383Z,99958.81
2022-12-24T06:09:46.180Z,99976.16
2022-12-24T06:12:34.675Z,99971.22
2022-12-24T06:15:24.307Z,99975.31
2022-12-24T06:18:12.863Z,99979.25
2022-12-24T06:21:01.706Z,99983.38
2022-12-24T06:23:50.222Z,99984.84
2022-12-24T06:26:40.103Z,99997.22
2022-12-24T06:29:28.520Z,99996.78
2022-12-24T06:32:17.005Z,99996.38
2022-12-24T06:35:06.094Z,99997.81
2022-12-24T06:37:54.631Z,100001.13
2022-12-24T06:40:44.213Z,99988.56
2022-12-24T06:43:34.679Z,100017.19
2022-12-24T06:46:23.380Z,100013.69
2022-12-24T06:49:11.854Z,100025.88
2022-12-24T06:52:00.333Z,100032.06
2022-12-24T06:54:48.832Z,100014.72
2022-12-24T06:57:37.281Z,100025.25
2022-12-24T07:00:27.130Z,100037.03
2022-12-24T07:03:15.649Z,100028.34
2022-12-24T07:06:04.184Z,100036.41
2022-12-24T07:08:52.693Z,100041.16
2022-12-24T07:11:42.144Z,100021.34
2022-12-24T07:14:30.612Z,100044.66
2022-12-24T07:17:20.578Z,100054.56
2022-12-24T07:20:13.299Z,100063.25
2022-12-24T07:23:01.870Z,100054.97
2022-12-24T07:25:50.356Z,100056.44
2022-12-24T07:28:38.794Z,100059.53
2022-12-24T07:31:27.790Z,100052.13
2022-12-24T07:34:17.737Z,100059.13
2022-12-24T07:37:06.277Z,100071.28
2022-12-24T07:39:54.777Z,100068.81
2022-12-24T07:42:43.365Z,100056.66
2022-12-24T07:45:31.785Z,100062.22
2022-12-24T07:48:20.240Z,100059.94
2022-12-24T07:51:10.058Z,100053.34
2022-12-24T07:53:58.634Z,100066.97
2022-12-24T07:56:47.893Z,100040.56
2022-12-24T07:59:36.375Z,100062.88
2022-12-24T08:02:24.941Z,100064.94
2022-12-24T08:05:13.595Z,100076.91
2022-12-24T08:08:03.629Z,100074.44
2022-12-24T08:10:52.587Z,100089.50
2022-12-24T08:13:41.213Z,100084.31
2022-12-24T08:16:29.713Z,100033.53
2022-12-24T08:19:18.309Z,100085.97
2022-12-24T08:22:07.617Z,100083.50
2022-12-24T08:24:57.459Z,100069.88
2022-12-24T08:27:45.879Z,100087.44
2022-12-24T08:30:34.717Z,100090.13
2022-12-24T08:33:23.192Z,100099.81
2022-12-24T08:36:11.658Z,100104.56
2022-12-24T08:39:03.397Z,100109.09
2022-12-24T08:41:53.206Z,100113.00
2022-12-24T08:44:41.678Z,100103.75
2022-12-24T08:47:30.180Z,100095.25
2022-12-24T08:50:18.837Z,100108.88
2022-12-24T08:53:07.401Z,100108.28
2022-12-24T08:56:02.830Z,100102.06
2022-12-24T08:58:52.611Z,100096.50
2022-12-24T09:01:41.138Z,100105.53
2022-12-24T09:04:29.739Z,100098.31
2022-12-24T09:07:18.162Z,100118.97
2022-12-24T09:10:08.028Z,100118.94
2022-12-24T09:12:56.503Z,100115.63
2022-12-24T09:15:54.074Z,100123.31
2022-12-24T09:18:42.723Z,100128.63
2022-12-24T09:21:31.403Z,100143.09
2022-12-24T09:24:19.833Z,100131.75
2022-12-24T09:27:08.304Z,100153.63
2022-12-24T09:29:56.806Z,100164.38
2022-12-24T09:32:46.675Z,100169.13
2022-12-24T09:35:35.155Z,100172.84
2022-12-24T09:38:23.946Z,100179.69
2022-12-24T09:41:14.220Z,100188.38
2022-12-24T09:44:19.460Z,100179.25
2022-12-24T09:47:13.922Z,100206.53
2022-12-24T09:50:05.031Z,100200.97
2022-12-24T09:52:53.967Z,99957.00
2022-12-24T09:55:45.671Z,100188.81
2022-12-24T09:58:37.609Z,100183.00
2022-12-24T10:01:26.411Z,100194.78
2022-12-24T10:04:16.711Z,100198.06
2022-12-24T10:07:12.198Z,100194.16
2022-12-24T10:10:05.314Z,100210.28
2022-12-24T10:13:00.413Z,100201.59
2022-12-24T10:15:56.042Z,100203.66
2022-12-24T10:18:51.496Z,100203.47
2022-12-24T10:21:47.538Z,100204.09
2022-12-24T10:24:49.822Z,100212.13
2022-12-24T10:27:40.633Z,100213.38
2022-12-24T10:30:29.374Z,100207.56
2022-12-24T10:33:20.562Z,100211.09
2022-12-24T10:36:12.684Z,100209.44
2022-12-24T10:39:01.438Z,100212.53
2022-12-24T10:41:55.344Z,100210.25
2022-12-24T10:44:47.036Z,100211.25
2022-12-24T10:47:38.098Z,100215.19
2022-12-24T10:50:33.734Z,100202.22
2022-12-24T10:53:26.090Z,100202.41
2022-12-24T10:56:17.460Z,100196.66
2022-12-24T10:59:07.557Z,100190.41
2022-12-24T11:01:56.852Z,100192.09
2022-12-24T11:04:52.921Z,100187.34
2022-12-24T11:07:41.622Z,100190.44
2022-12-24T11:10:31.051Z,100203.03
2022-12-24T11:13:39.906Z,100203.88
2022-12-24T11:16:31.582Z,100201.41
2022-12-24T11:19:33.230Z,100192.53
2022-12-24T11:22:24.662Z,100193.13
2022-12-24T11:25:22.134Z,100206.75
2022-12-24T11:28:21.341Z,100213.50
2022-12-24T11:31:20.678Z,100210.41
2022-12-24T11:34:25.062Z,100210.34
2022-12-24T11:37:17.704Z,100180.88
2022-12-24T11:40:07.645Z,100206.47
2022-12-24T11:43:00.778Z,100200.22
2022-12-24T11:45:51.201Z,100193.84
2022-12-24T11:48:39.804Z,100195.75
2022-12-24T11:51:29.712Z,100196.59
2022-12-24T11:54:21.383Z,100185.63
2022-12-24T11:57:10.157Z,100188.72
2022-12-24T11:59:58.903Z,100180.03
2022-12-24T12:02:48.786Z,100182.03
2022-12-24T12:05:39.688Z,100189.63
2022-12-24T12:08:30.535Z,100186.84
2022-12-24T12:11:19.531Z,100178.19
2022-12-24T12:14:11.023Z,100185.66
2022-12-24T12:17:03.932Z,100199.09
2022-12-24T12:19:58.298Z,100199.31
2022-12-24T12:22:51.786Z,100199.25
2022-12-24T12:25:45.327Z,100202.50
2022-12-24T12:28:37.474Z,100184.38
2022-12-24T12:31:31.121Z,100206.38
2022-12-24T12:34:21.899Z,100222.03
2022-12-24T12:37:15.253Z,100208.72
2022-12-24T12:40:05.224Z,100213.47
2022-12-24T12:43:02.371Z,100203.56
2022-12-24T12:45:54.585Z,100205.03
2022-12-24T12:49:04.860Z,100197.63
2022-12-24T12:51:58.426Z,100195.00
2022-12-24T12:54:56.320Z,100198.09
2022-12-24T12:57:46.371Z,100193.59
2022-12-24T13:00:39.506Z,100200.59
2022-12-24T13:04:05.624Z,100196.69
2022-12-24T13:07:40.253Z,100188.25
2022-12-24T13:10:44.642Z,100196.34
2022-12-24T13:14:10.653Z,100194.72
2022-12-24T13:17:29.337Z,100207.94
2022-12-24T13:20:24.632Z,100209.19
2022-12-24T13:23:15.019Z,100205.00
2022-12-24T13:26:11.955Z,100195.22
2022-12-24T13:29:31.282Z,100185.50
2022-12-24T13:32:50.752Z,100187.38
2022-12-24T13:35:55.417Z,100200.44
2022-12-24T13:38:45.095Z,100196.53
2022-12-24T13:41:57.538Z,100192.09
2022-12-24T13:44:46.000Z,100186.38
2022-12-24T13:47:34.467Z,100181.63
2022-12-24T13:50:28.145Z,100181.03
2022-12-24T13:53:23.603Z,100144.75
2022-12-24T13:56:23.948Z,100165.63
2022-12-24T13:59:20.815Z,100169.94
2022-12-24T14:02:19.401Z,100179.84
2022-12-24T14:05:21.292Z,100176.09
2022-12-24T14:08:13.523Z,100174.41
2022-12-24T14:11:09.104Z,100174.03
2022-12-24T14:14:27.923Z,100164.00
2022-12-24T14:17:24.006Z,100173.63
2022-12-24T14:20:14.540Z,100164.31
2022-12-24T14:23:04.975Z,100162.03
2022-12-24T14:25:54.848Z,100167.41
2022-12-24T14:28:47.457Z,100162.03
2022-12-24T14:31:35.928Z,100166.19
2022-12-24T14:34:24.585Z,100173.25
2022-12-24T14:37:14.275Z,100180.50
2022-12-24T14:40:02.871Z,100183.88
2022-12-24T14:42:57.991Z,100092.47
2022-12-24T14:45:49.956Z,100181.03
2022-12-24T14:48:41.938Z,100203.19
2022-12-24T14:51:36.541Z,100189.16
2022-12-24T14:54:35.114Z,100186.47
2022-12-24T14:57:25.242Z,100185.44
2022-12-24T15:00:21.534Z,100179.47
2022-12-24T15:03:13.813Z,100176.16
2022-12-24T15:06:05.348Z,100185.69
2022-12-24T15:08:54.580Z,100201.81
2022-12-24T15:11:45.137Z,100204.47
2022-12-24T15:14:41.996Z,100193.75
2022-12-24T15:17:31.799Z,100186.09
2022-12-24T15:20:23.039Z,100204.69
2022-12-24T15:23:19.587Z,100208.84
2022-12-24T15:26:13.950Z,100208.81
2022-12-24T15:28:43.893Z,100212.31
2022-12-24T15:31:17.433Z,100225.13
2022-12-24T15:33:49.838Z,100219.78
2022-12-24T15:36:29.133Z,100229.25
2022-12-24T15:39:00.704Z,100206.97
2022-12-24T15:41:34.336Z,100214.16
2022-12-24T15:44:05.693Z,100219.13
2022-12-24T15:46:35.928Z,100225.53
2022-12-24T15:49:07.273Z,100205.69
2022-12-24T15:51:40.880Z,100217.91
2022-12-24T15:54:14.091Z,100210.22
2022-12-24T15:56:45.245Z,100213.75
2022-12-24T15:59:40.617Z,100217.88
2022-12-24T16:02:38.944Z,100216.44
2022-12-24T16:05:32.570Z,100219.94
2022-12-24T16:08:08.283Z,100229.63
2022-12-24T16:10:39.938Z,100230.63
2022-12-24T16:13:16.915Z,100228.16
2022-12-24T16:15:48.549Z,100222.38
2022-12-24T16:18:18.499Z,100236.41
2022-12-24T16:20:52.354Z,100237.00
2022-12-24T16:23:22.265Z,100244.03
2022-12-24T16:25:51.290Z,100242.38
2022-12-24T16:28:22.992Z,100243.59
2022-12-24T16:30:51.793Z,100247.28
2022-12-24T16:33:21.362Z,100243.38
2022-12-24T16:35:51.347Z,100260.09
2022-12-24T16:38:51.648Z,100262.19
2022-12-24T16:41:20.215Z,100221.03
2022-12-24T16:43:50.521Z,100259.50
2022-12-24T16:46:18.871Z,100258.25
2022-12-24T16:48:48.920Z,100255.38
2022-12-24T16:51:18.491Z,100252.06
2022-12-24T16:53:46.717Z,100245.22
2022-12-24T16:56:16.913Z,100253.84
2022-12-24T16:59:03.809Z,100239.00
2022-12-24T17:01:52.794Z,100264.97
2022-12-24T17:04:41.492Z,100265.16
2022-12-24T17:07:31.366Z,100266.81
2022-12-24T17:10:19.925Z,100249.03
2022-12-24T17:13:08.526Z,100174.75
2022-12-24T17:15:57.088Z,100268.69
2022-12-24T17:18:45.551Z,100264.44
2022-12-24T17:21:34.384Z,100261.16
2022-12-24T17:24:25.206Z,100242.09
2022-12-24T17:27:14.029Z,100261.78
2022-12-24T17:30:02.649Z,100276.44
2022-12-24T17:32:51.170Z,100255.09
2022-12-24T17:35:40.695Z,100295.16
2022-12-24T17:38:29.226Z,100293.88
2022-12-24T17:41:20.276Z,100295.50
2022-12-24T17:44:10.135Z,100289.94
2022-12-24T17:46:58.804Z,100278.78
2022-12-24T17:49:47.390Z,100282.88
2022-12-24T17:52:35.885Z,100285.59
2022-12-24T17:55:24.343Z,100278.13
2022-12-24T17:58:15.151Z,100274.00
2022-12-24T18:01:03.813Z,100281.84
2022-12-24T18:03:53.684Z,100111.91
2022-12-24T18:06:48.718Z,100261.84
2022-12-24T18:09:38.004Z,100259.97
2022-12-24T18:12:26.552Z,100266.09
2022-12-24T18:15:19.443Z,100276.41
2022-12-24T18:18:08.874Z,100274.13
2022-12-24T18:20:57.398Z,100270.72
2022-12-24T18:23:47.361Z,100224.75
2022-12-24T18:26:36.197Z,100263.38
2022-12-24T18:29:24.679Z,100270.81
2022-12-24T18:32:16.844Z,100286.69
2022-12-24T18:35:05.896Z,100280.88
2022-12-24T18:37:54.418Z,100282.66
2022-12-24T18:40:42.876Z,100286.19
2022-12-24T18:43:31.503Z,100290.25
2022-12-24T18:46:22.335Z,100292.31
2022-12-24T18:49:12.620Z,100289.84
2022-12-24T18:52:01.170Z,100285.09
2022-12-24T18:54:50.055Z,100258.41
2022-12-24T18:57:38.548Z,100281.41
2022-12-24T19:00:27.394Z,100290.25
2022-12-24T19:03:16.765Z,100277.81
2022-12-24T19:06:07.275Z,100268.53
2022-12-24T19:08:59.097Z,100289.44
2022-12-24T19:11:49.012Z,100287.53
2022-12-24T19:14:37.475Z,100284.84
2022-12-24T19:17:25.937Z,100284.66
2022-12-24T19:20:14.649Z,100296.78
2022-12-24T19:23:04.665Z,100285.44
2022-12-24T19:25:53.130Z,100287.94
2022-12-24T19:28:41.684Z,100298.69
2022-12-24T19:31:32.125Z,100300.94
2022-12-24T19:34:20.720Z,100287.66
2022-12-24T19:37:09.700Z,100294.78
2022-12-24T19:39:59.525Z,100320.75
2022-12-24T19:42:50.122Z,100325.66
2022-12-24T19:45:38.692Z,100336.38
2022-12-24T19:48:28.136Z,100330.63
2022-12-24T19:51:16.869Z,100334.94
2022-12-24T19:54:06.624Z,100315.03
2022-12-24T19:56:56.465Z,100341.72
2022-12-24T19:59:44.972Z,100343.38
2022-12-24T20:02:34.081Z,100340.94
2022-12-24T20:05:22.566Z,100346.56
2022-12-24T20:08:11.287Z,100346.56
2022-12-24T20:10:59.907Z,100340.38
2022-12-24T20:13:49.904Z,100333.75
2022-12-24T20:16:38.562Z,100334.38
2022-12-24T20:19:27.122Z,100341.03
2022-12-24T20:22:15.613Z,100340.88
2022-12-24T20:25:04.116Z,100337.56
2022-12-24T20:27:52.792Z,100341.03
2022-12-24T20:30:42.593Z,100331.50
2022-12-24T20:33:31.066Z,100328.13
2022-12-24T20:36:21.688Z,100322.34
2022-12-24T20:39:11.893Z,100329.56
2022-12-24T20:42:01.696Z,100333.88
2022-12-24T20:44:50.232Z,100326.50
2022-12-24T20:47:40.205Z,100328.22
2022-12-24T20:50:28.752Z,100336.06
2022-12-24T20:53:17.171Z,100320.38
2022-12-24T20:56:06.286Z,100317.84
2022-12-24T20:58:54.982Z,100337.28
2022-12-24T21:01:43.531Z,100359.59
2022-12-24T21:04:33.480Z,100365.13
2022-12-24T21:07:21.943Z,100380.13
2022-12-24T21:10:11.301Z,100386.94
2022-12-24T21:12:59.002Z,100386.25
2022-12-24T21:15:47.481Z,100398.22
2022-12-24T21:18:35.973Z,100404.78
2022-12-24T21:21:25.969Z,100400.00
2022-12-24T21:24:15.070Z,100407.91
2022-12-24T21:27:03.506Z,100403.94
2022-12-24T21:29:52.002Z,100400.69
2022-12-24T21:32:40.525Z,100400.50
2022-12-24T21:35:28.997Z,100384.81
2022-12-24T21:38:18.852Z,100387.97
2022-12-24T21:41:09.558Z,100368.47
2022-12-24T21:44:01.324Z,100363.72
2022-12-24T21:46:49.789Z,100350.09
2022-12-24T21:49:56.537Z,100341.22
2022-12-24T21:52:45.011Z,100336.91
2022-12-24T21:55:33.957Z,100329.81
2022-12-24T21:58:22.502Z,100334.59
2022-12-24T22:01:12.395Z,100333.97
2022-12-24T22:04:01.087Z,100303.81
2022-12-24T22:07:07.599Z,100329.66
2022-12-24T22:10:13.384Z,100325.94
2022-12-24T22:13:06.143Z,100306.34
2022-12-24T22:15:55.231Z,100307.44
2022-12-24T22:18:43.666Z,100292.91
2022-12-24T22:21:32.155Z,100300.72
2022-12-24T22:24:20.658Z,100308.06
2022-12-24T22:27:09.120Z,100291.09
2022-12-24T22:29:59.121Z,100312.16
2022-12-24T22:32:47.609Z,100311.56
2022-12-24T22:35:38.637Z,100318.72
2022-12-24T22:38:27.091Z,100305.91
2022-12-24T22:41:15.560Z,100305.47
2022-12-24T22:44:04.075Z,100307.72
2022-12-24T22:46:55.010Z,100307.81
2022-12-24T22:49:43.499Z,100309.44
2022-12-24T22:52:33.160Z,100308.16
2022-12-24T22:55:21.735Z,100305.31
2022-12-24T22:58:10.179Z,100315.91
2022-12-24T23:00:59.125Z,100176.31
2022-12-24T23:03:50.072Z,100308.00
2022-12-24T23:06:38.661Z,100303.63
2022-12-24T23:09:27.150Z,100321.44
2022-12-24T23:12:35.579Z,100315.63
2022-12-24T23:15:23.047Z,100315.44
2022-12-24T23:18:12.082Z,100311.28
2022-12-24T23:21:06.108Z,100306.81
2022-12-24T23:23:54.934Z,100313.38
2022-12-24T23:26:43.468Z,100320.75
2022-12-24T23:29:33.241Z,100305.63
2022-12-24T23:32:23.296Z,100318.06
2022-12-24T23:37:58.843Z,100313.75
2022-12-24T23:40:47.625Z,100298.69
2022-12-24T23:43:36.542Z,100297.94
2022-12-24T23:46:25.027Z,100291.59
2022-12-24T23:49:15.315Z,100307.72
2022-12-24T23:52:04.182Z,100310.56
2022-12-24T23:54:53.997Z,100310.56
2022-12-24T23:57:42.566Z,100318.03
